Terminal Aerodrome Forecast
Issued by NWS Charleston, WV

Current Version | Previous Version | Text Only | Print | Product List | Glossary Off
Versions: 1 2 3 4 5 6 7 8 9 10 11 12 13 14 15 16 17 18 19 20 21 22 23 24 25 26

000
FTUS41 KRLX 272339
TAFPKB
TAF
KPKB 272339Z 2800/2824 00000KT P6SM SCT040
     FM280300 00000KT 6SM BR SCT050
     FM280500 00000KT 4SM BR SCT050
     FM280800 00000KT 1 1/2SM BR SCT080
     FM281000 00000KT 1/4SM FG VV001
     FM281300 00000KT 4SM BR FEW010
     FM281400 00000KT 6SM HZ FEW080
     FM281500 00000KT P6SM FEW080=

USA.gov is the U.S. government's official web portal to all federal, state and local government web resources and services.